Time;durP1;ratioP1;P1;durP2;ratioP2;P2;SDS_P1;SDS_P2;PMS_P1;PMS_P2;Temp;Humidity;BMP_temperature;BMP_pressure;BME280_temperature;BME280_humidity;BME280_pressure;Samples;Min_cycle;Max_cycle;Signal;HPM_P1;HPM_P2
2021/10/09 00:00:09;;;;;;;32.40;17.75;;;;;;;7.12;98.32;99699.28;5043106;28;20021;-85
2021/10/09 00:02:35;;;;;;;31.95;17.40;;;;;;;7.15;98.08;99708.94;5043077;28;20276;-85
2021/10/09 00:05:01;;;;;;;32.92;19.30;;;;;;;7.12;98.05;99703.66;5044225;28;20049;-85
2021/10/09 00:07:27;;;;;;;30.10;17.02;;;;;;;6.99;97.30;99681.69;5042825;28;20045;-85
2021/10/09 00:09:57;;;;;;;39.58;20.23;;;;;;;6.95;98.05;99694.72;5043024;28;20092;-85
2021/10/09 00:12:24;;;;;;;40.47;20.80;;;;;;;6.94;98.31;99706.94;5042994;28;20024;-85
2021/10/09 00:14:49;;;;;;;186.25;19.83;;;;;;;6.71;98.28;99691.81;5042726;28;20048;-85
2021/10/09 00:17:17;;;;;;;128.80;21.52;;;;;;;6.48;99.57;99696.75;5042834;28;20308;-85
2021/10/09 00:19:42;;;;;;;36.90;19.25;;;;;;;6.58;100.00;99696.00;5044011;28;20017;-85
2021/10/09 00:22:08;;;;;;;43.92;21.23;;;;;;;6.67;100.00;99714.44;5043953;28;20021;-85
2021/10/09 00:24:33;;;;;;;42.28;20.98;;;;;;;6.75;100.00;99694.50;5042569;28;20108;-85
2021/10/09 00:26:59;;;;;;;37.80;17.95;;;;;;;6.68;100.00;99695.28;5043932;28;20404;-85
2021/10/09 00:29:24;;;;;;;30.90;16.80;;;;;;;6.72;99.13;99696.19;5042756;28;20088;-85
2021/10/09 00:31:50;;;;;;;28.75;15.52;;;;;;;6.64;97.79;99699.59;5042724;28;20316;-85
2021/10/09 00:34:15;;;;;;;31.00;16.05;;;;;;;6.48;96.76;99744.72;5042744;28;20025;-85
2021/10/09 00:36:40;;;;;;;33.13;17.33;;;;;;;6.40;97.00;99703.63;5042606;28;20030;-85
2021/10/09 00:39:06;;;;;;;37.25;18.70;;;;;;;6.34;96.74;99693.06;5042665;28;20041;-85
2021/10/09 00:41:32;;;;;;;37.75;19.08;;;;;;;6.25;96.82;99431.50;5042620;28;20340;-85
2021/10/09 00:44:12;;;;;;;31.75;17.10;;;;;;;6.30;97.10;99430.69;5042360;28;20029;-85
2021/10/09 00:46:39;;;;;;;27.33;15.45;;;;;;;6.33;97.23;99430.72;5042611;28;20023;-85
2021/10/09 00:49:05;;;;;;;32.78;18.10;;;;;;;6.20;96.96;99511.59;5042566;28;20024;-85
2021/10/09 00:51:31;;;;;;;34.83;18.80;;;;;;;6.23;98.24;99507.31;5042536;28;20017;-85
2021/10/09 00:54:00;;;;;;;46.28;18.00;;;;;;;6.09;98.55;99502.78;5042285;28;20079;-85
2021/10/09 00:56:27;;;;;;;31.83;18.05;;;;;;;6.06;98.68;99513.19;5042440;28;20029;-85
2021/10/09 00:58:54;;;;;;;49.40;24.92;;;;;;;6.08;99.26;99506.25;5043572;28;20021;-85
2021/10/09 01:01:20;;;;;;;52.30;23.50;;;;;;;6.12;99.32;99508.94;5043910;28;20025;-85
2021/10/09 01:03:48;;;;;;;52.95;22.85;;;;;;;6.13;98.51;99499.34;5067679;22;20231;-89
2021/10/09 01:06:13;;;;;;;55.88;25.38;;;;;;;6.08;98.50;99503.66;5086485;28;20021;-89
2021/10/09 01:08:39;;;;;;;46.63;22.88;;;;;;;6.06;97.58;99493.19;5087629;28;20326;-89
2021/10/09 01:11:05;;;;;;;85.63;22.42;;;;;;;5.90;97.82;99495.56;5087440;28;20020;-89
2021/10/09 01:13:30;;;;;;;47.03;22.17;;;;;;;5.93;98.02;99506.06;5086123;28;20016;-89
2021/10/09 01:15:56;;;;;;;51.38;24.83;;;;;;;5.97;97.73;99497.41;5086249;28;20266;-89
2021/10/09 01:18:21;;;;;;;46.00;21.52;;;;;;;5.90;97.23;99495.56;5086206;28;20319;-89
2021/10/09 01:20:54;;;;;;;46.15;20.77;;;;;;;5.74;96.85;99491.84;5086200;28;20027;-89
2021/10/09 01:23:21;;;;;;;47.35;22.05;;;;;;;5.79;97.30;99497.16;5086138;28;20016;-89
2021/10/09 01:25:47;;;;;;;66.55;26.42;;;;;;;5.70;98.12;99491.78;5086097;28;20104;-89
2021/10/09 01:28:13;;;;;;;51.25;24.70;;;;;;;5.69;98.45;99490.03;5087481;28;20020;-89
2021/10/09 01:30:38;;;;;;;58.03;26.23;;;;;;;5.72;99.51;99482.22;5085986;28;20020;-89
2021/10/09 01:33:05;;;;;;;63.00;26.58;;;;;;;5.74;98.85;99483.13;5085949;28;20067;-89
2021/10/09 01:35:31;;;;;;;48.20;23.83;;;;;;;5.68;98.45;99478.72;5085970;28;20028;-89
2021/10/09 01:37:56;;;;;;;60.33;25.30;;;;;;;5.70;98.85;99481.34;5085994;28;20024;-89
2021/10/09 01:40:22;;;;;;;51.10;24.83;;;;;;;5.68;99.21;99476.09;5086961;28;20020;-89
2021/10/09 01:42:48;;;;;;;74.20;31.83;;;;;;;5.76;99.31;99484.03;5086118;28;20076;-89
2021/10/09 01:45:13;;;;;;;60.22;28.27;;;;;;;5.73;99.69;99484.00;5085801;28;20024;-89
2021/10/09 01:47:43;;;;;;;61.92;27.35;;;;;;;5.78;99.20;99492.75;5085765;28;20013;-89
2021/10/09 01:50:12;;;;;;;59.90;27.10;;;;;;;5.69;98.86;99484.78;5086857;28;20017;-89
2021/10/09 01:52:37;;;;;;;66.55;29.17;;;;;;;5.79;99.67;99481.47;5085598;28;20027;-89
2021/10/09 01:55:03;;;;;;;71.07;28.17;;;;;;;5.81;99.65;99482.34;5085569;28;20044;-89
2021/10/09 01:57:29;;;;;;;59.33;26.88;;;;;;;5.87;99.27;99479.84;5085326;28;20027;-89
2021/10/09 01:59:54;;;;;;;60.28;27.42;;;;;;;5.80;99.14;99485.81;5086593;28;20024;-89
2021/10/09 02:02:20;;;;;;;60.20;27.10;;;;;;;5.96;100.00;99475.63;5086512;28;20335;-89
2021/10/09 02:04:46;;;;;;;56.50;27.45;;;;;;;5.96;99.55;99469.53;5084990;28;20063;-89
2021/10/09 02:07:17;;;;;;;60.88;27.80;;;;;;;6.05;99.99;99464.41;5085391;28;20016;-89
2021/10/09 02:09:42;;;;;;;66.55;27.38;;;;;;;6.15;100.00;99472.38;5085329;28;20024;-89
2021/10/09 02:12:08;;;;;;;71.53;32.03;;;;;;;6.11;99.74;99474.94;5086405;28;20333;-89
2021/10/09 02:14:48;;;;;;;65.32;29.23;;;;;;;6.19;100.00;99470.66;5085490;28;20048;-89
2021/10/09 02:25:44;;;;;;;66.25;28.45;;;;;;;6.57;100.00;99477.16;5086117;28;20347;-89
2021/10/09 02:28:09;;;;;;;64.50;30.77;;;;;;;6.70;100.00;99479.03;5085327;28;20017;-89
2021/10/09 02:30:35;;;;;;;78.20;32.08;;;;;;;6.68;100.00;99479.88;5086055;28;20327;-89
2021/10/09 02:33:01;;;;;;;71.20;31.40;;;;;;;6.63;100.00;99469.38;5084773;28;20342;-89
2021/10/09 02:35:26;;;;;;;78.28;31.58;;;;;;;6.67;100.00;99473.78;5085048;28;20021;-89
2021/10/09 02:37:52;;;;;;;82.07;31.98;;;;;;;6.75;100.00;99473.84;5084984;28;20081;-89
2021/10/09 02:40:17;;;;;;;62.20;28.77;;;;;;;6.73;100.00;99468.59;5084750;28;20087;-89
2021/10/09 02:42:43;;;;;;;68.97;30.58;;;;;;;6.68;99.53;99470.31;5084672;28;20016;-89
2021/10/09 02:45:08;;;;;;;69.97;30.88;;;;;;;6.76;100.00;99471.25;5084601;28;20020;-89
2021/10/09 02:47:34;;;;;;;67.65;30.05;;;;;;;6.79;99.85;99467.78;5084540;28;20338;-89
2021/10/09 02:49:59;;;;;;;73.32;32.15;;;;;;;6.85;100.00;99459.97;5084525;28;20089;-89
2021/10/09 02:52:25;;;;;;;82.50;34.38;;;;;;;7.00;100.00;99462.72;5084562;28;20108;-90
2021/10/09 02:54:50;;;;;;;68.20;28.95;;;;;;;6.95;100.00;99461.78;5085574;28;20058;-89
2021/10/09 02:57:15;;;;;;;71.68;32.97;;;;;;;6.90;100.00;99464.41;5084350;28;20369;-89
2021/10/09 02:59:41;;;;;;;72.78;30.88;;;;;;;6.99;100.00;99455.75;5085491;28;20031;-89
2021/10/09 03:02:06;;;;;;;79.00;33.50;;;;;;;7.00;100.00;99468.84;5085249;28;20043;-89
2021/10/09 03:04:31;;;;;;;76.53;33.53;;;;;;;7.01;100.00;99462.75;5084029;28;20044;-89
2021/10/09 03:06:57;;;;;;;66.13;30.05;;;;;;;6.95;100.00;99465.31;5084183;28;20021;-89
2021/10/09 03:09:22;;;;;;;72.20;32.80;;;;;;;7.08;100.00;99475.00;5084150;28;20017;-89
2021/10/09 03:11:48;;;;;;;82.63;33.45;;;;;;;7.10;100.00;99464.53;5084045;28;20024;-89
2021/10/09 03:14:13;;;;;;;71.93;33.03;;;;;;;7.13;100.00;99465.47;5084055;28;20024;-89
2021/10/09 03:16:38;;;;;;;97.32;34.83;;;;;;;7.17;100.00;99469.84;5083905;28;20048;-89
2021/10/09 03:19:04;;;;;;;74.65;34.65;;;;;;;7.21;100.00;99463.75;5084261;28;20044;-89
2021/10/09 03:21:29;;;;;;;80.07;34.10;;;;;;;7.21;100.00;99469.00;5083943;28;20099;-89
2021/10/09 03:23:55;;;;;;;76.25;34.05;;;;;;;7.22;100.00;99462.03;5083826;28;20022;-89
2021/10/09 03:26:20;;;;;;;87.22;33.40;;;;;;;7.25;100.00;99469.91;5083804;28;20012;-89
2021/10/09 03:28:45;;;;;;;74.28;30.70;;;;;;;7.18;99.56;99462.88;5084704;28;20055;-89
2021/10/09 03:31:11;;;;;;;64.50;29.63;;;;;;;7.15;99.14;99468.94;5083685;28;20021;-89
2021/10/09 03:33:38;;;;;;;82.15;33.28;;;;;;;7.12;100.00;99463.69;5083668;28;20021;-89
2021/10/09 03:36:03;;;;;;;80.15;34.17;;;;;;;7.23;100.00;99472.50;5083523;28;20066;-89
2021/10/09 03:38:29;;;;;;;71.22;31.92;;;;;;;7.20;100.00;99469.88;5083602;28;20312;-89
2021/10/09 03:41:00;;;;;;;83.78;33.65;;;;;;;7.12;99.55;99476.78;5083521;28;20055;-89
2021/10/09 03:43:26;;;;;;;83.57;34.03;;;;;;;7.07;100.00;99483.72;5083367;28;20028;-89
2021/10/09 03:54:00;;;;;;;73.38;34.13;;;;;;;7.04;100.00;99470.63;5084430;28;20027;-89
2021/10/09 03:56:25;;;;;;;81.30;32.78;;;;;;;6.99;100.00;99467.06;5083170;28;20025;-89
2021/10/09 03:58:51;;;;;;;79.47;34.35;;;;;;;7.05;100.00;99467.13;5083154;28;20024;-89
2021/10/09 04:01:16;;;;;;;74.35;33.35;;;;;;;6.99;100.00;99467.06;5083201;28;20056;-89
2021/10/09 04:03:42;;;;;;;82.70;34.90;;;;;;;7.04;100.00;99468.00;5083074;28;20041;-89
2021/10/09 04:06:07;;;;;;;85.53;33.72;;;;;;;7.02;100.00;99471.47;5083044;28;20040;-89
2021/10/09 04:08:32;;;;;;;71.97;31.90;;;;;;;6.91;99.62;99468.78;5084208;28;20084;-89
2021/10/09 04:10:58;;;;;;;68.40;30.25;;;;;;;6.85;99.48;99473.94;5084218;28;20020;-89
2021/10/09 04:13:23;;;;;;;76.68;31.55;;;;;;;6.83;99.50;99480.91;5083070;28;20024;-89
2021/10/09 04:15:49;;;;;;;81.60;33.30;;;;;;;6.80;99.67;99480.88;5083359;28;20025;-89
2021/10/09 04:18:14;;;;;;;86.13;32.75;;;;;;;6.75;99.47;99477.34;5082996;28;20048;-89
2021/10/09 04:20:39;;;;;;;84.07;33.50;;;;;;;6.82;99.89;99478.25;5083022;28;20089;-89
2021/10/09 04:23:05;;;;;;;70.15;32.97;;;;;;;6.77;99.58;99477.38;5082971;28;20055;-89
2021/10/09 04:25:31;;;;;;;71.18;30.80;;;;;;;6.68;98.69;99475.53;5083884;28;20020;-89
2021/10/09 04:27:56;;;;;;;71.43;32.47;;;;;;;6.71;98.77;99470.34;5082887;28;20016;-89
2021/10/09 04:30:22;;;;;;;75.05;33.28;;;;;;;6.72;99.61;99472.09;5082897;28;20282;-89
2021/10/09 04:32:47;;;;;;;85.65;33.45;;;;;;;6.69;99.83;99472.06;5082565;28;20021;-89
2021/10/09 04:35:12;;;;;;;77.30;34.15;;;;;;;6.72;99.53;99472.09;5083927;28;20032;-89
2021/10/09 04:37:38;;;;;;;85.25;35.80;;;;;;;6.79;100.00;99468.66;5087388;28;20382;-89
2021/10/09 04:40:04;;;;;;;84.93;36.83;;;;;;;6.81;100.00;99474.78;5089431;28;20205;-89
2021/10/09 04:42:30;;;;;;;82.60;35.80;;;;;;;6.82;99.72;99478.25;5089717;28;20032;-89
2021/10/09 04:44:55;;;;;;;94.22;37.22;;;;;;;6.82;100.00;99479.16;5089192;28;20020;-89
2021/10/09 04:47:20;;;;;;;80.10;35.47;;;;;;;6.82;100.00;99473.91;5089368;28;20024;-90
2021/10/09 04:49:46;;;;;;;85.22;36.35;;;;;;;6.83;99.73;99480.03;5089408;28;20275;-89
2021/10/09 04:52:11;;;;;;;80.50;36.03;;;;;;;6.88;100.00;99479.22;5090364;28;20023;-89
2021/10/09 04:54:37;;;;;;;90.93;38.17;;;;;;;6.84;99.97;99471.31;5089329;28;20029;-89
2021/10/09 04:57:02;;;;;;;82.85;35.65;;;;;;;6.81;99.61;99471.28;5090408;28;20031;-89
2021/10/09 04:59:28;;;;;;;89.07;37.10;;;;;;;6.83;100.00;99470.44;5090459;28;20196;-89
2021/10/09 05:01:53;;;;;;;90.60;36.63;;;;;;;6.84;100.00;99477.44;5089257;28;20075;-89
2021/10/09 05:04:18;;;;;;;91.60;35.92;;;;;;;6.76;99.82;99473.84;5089055;28;20048;-89
2021/10/09 05:06:44;;;;;;;72.28;33.80;;;;;;;6.75;99.82;99472.13;5089148;28;20046;-89
2021/10/09 05:09:09;;;;;;;83.82;37.65;;;;;;;6.82;99.87;99483.50;5089215;28;20020;-89
2021/10/09 05:11:35;;;;;;;78.15;34.70;;;;;;;6.77;99.90;99488.69;5089055;28;20027;-89
2021/10/09 05:14:00;;;;;;;84.65;36.47;;;;;;;6.77;99.82;99478.22;5090317;28;20054;-89
2021/10/09 05:16:27;;;;;;;82.88;34.10;;;;;;;6.77;99.77;99480.84;5089092;28;20411;-89
2021/10/09 05:18:52;;;;;;;80.45;35.97;;;;;;;6.67;99.79;99484.22;5090294;28;20052;-89
2021/10/09 05:21:18;;;;;;;87.80;33.60;;;;;;;6.64;99.68;99486.81;5089047;28;20024;-89
2021/10/09 05:23:43;;;;;;;86.70;37.88;;;;;;;6.69;100.00;99498.22;5088990;28;20216;-89
2021/10/09 05:26:10;;;;;;;89.22;37.50;;;;;;;6.63;100.00;99499.03;5090188;28;20054;-89
2021/10/09 05:28:44;;;;;;;95.82;36.67;;;;;;;6.60;99.71;99499.00;5089078;28;20048;-89
2021/10/09 05:31:12;;;;;;;76.53;34.28;;;;;;;6.63;99.93;99495.53;5090206;28;20016;-89
2021/10/09 05:33:42;;;;;;;85.03;36.15;;;;;;;6.59;99.83;99499.00;5088961;28;20020;-89
2021/10/09 05:36:07;;;;;;;87.45;34.72;;;;;;;6.63;100.00;99499.03;5088918;28;20207;-89
2021/10/09 05:38:33;;;;;;;79.20;35.53;;;;;;;6.56;99.39;99491.13;5088992;28;20024;-89
2021/10/09 05:40:59;;;;;;;77.65;37.00;;;;;;;6.42;98.87;99504.03;5088959;28;20277;-89
2021/10/09 05:43:25;;;;;;;81.93;36.38;;;;;;;6.47;99.47;99501.47;5088904;28;20043;-89
2021/10/09 05:45:51;;;;;;;85.18;36.72;;;;;;;6.43;99.01;99502.31;5088885;28;20042;-89
2021/10/09 05:48:16;;;;;;;80.00;34.70;;;;;;;6.50;99.89;99506.75;5087357;28;20016;-89
2021/10/09 05:51:17;;;;;;;101.68;38.50;;;;;;;6.52;100.00;99510.25;5085671;28;20028;-89
2021/10/09 06:45:41;;;;;;;61.88;24.23;;;;;;;9.07;91.54;99530.94;5085313;28;20035;-90
2021/10/09 07:01:08;;;;;;;38.08;20.33;;;;;;;10.94;83.38;99537.47;5085074;28;20092;-90
2021/10/09 07:03:33;;;;;;;41.50;20.90;;;;;;;10.83;83.43;99536.69;5083864;28;20324;-90
2021/10/09 07:05:59;;;;;;;41.40;21.55;;;;;;;11.35;82.40;99551.22;5084252;28;20142;-90
2021/10/09 07:08:24;;;;;;;46.53;20.83;;;;;;;11.33;82.23;99550.34;5084520;28;20016;-90
2021/10/09 07:10:50;;;;;;;41.45;21.40;;;;;;;11.38;82.14;99552.94;5084153;28;20023;-90
2021/10/09 07:13:16;;;;;;;46.72;20.33;;;;;;;11.91;80.08;99554.28;5100979;28;20016;-90
2021/10/09 07:15:42;;;;;;;39.03;20.60;;;;;;;12.31;77.38;99555.56;5083261;28;20312;-90
2021/10/09 07:18:13;;;;;;;45.63;19.70;;;;;;;12.46;77.45;99552.75;5083928;28;20388;-90
2021/10/09 07:20:39;;;;;;;39.22;20.58;;;;;;;12.09;79.03;99558.47;5100895;28;20020;-90
2021/10/09 07:23:07;;;;;;;43.05;20.60;;;;;;;12.60;77.45;99550.78;5083857;28;20050;-90
2021/10/09 07:25:37;;;;;;;40.55;20.10;;;;;;;12.80;77.70;99554.06;5083802;28;20335;-90
2021/10/09 07:28:03;;;;;;;38.53;20.10;;;;;;;13.22;75.68;99554.38;5083777;28;20058;-90
2021/10/09 07:30:28;;;;;;;34.15;19.00;;;;;;;13.46;75.28;99553.97;5083522;28;20017;-90
2021/10/09 07:32:54;;;;;;;32.47;18.55;;;;;;;13.67;73.95;99553.63;5083725;28;20020;-90
2021/10/09 07:35:19;;;;;;;40.03;18.45;;;;;;;14.23;72.12;99557.03;5084839;28;20024;-90
2021/10/09 07:37:45;;;;;;;38.45;19.40;;;;;;;14.34;71.78;99556.81;5083548;28;20017;-90
2021/10/09 07:40:11;;;;;;;35.58;19.50;;;;;;;14.57;71.29;99559.88;5083476;28;20024;-90
2021/10/09 07:42:37;;;;;;;36.45;18.05;;;;;;;14.79;70.79;99553.22;5083579;28;20016;-91
2021/10/09 07:45:04;;;;;;;33.28;17.75;;;;;;;15.07;69.47;99559.66;5083510;28;20092;-91
2021/10/09 07:47:30;;;;;;;37.80;18.73;;;;;;;15.48;69.13;99562.25;5082326;28;20027;-90
2021/10/09 07:49:55;;;;;;;34.00;17.15;;;;;;;15.99;66.93;99560.03;5082673;28;20095;-91
2021/10/09 07:52:23;;;;;;;36.53;17.85;;;;;;;15.66;67.88;99561.78;5083381;28;20020;-91
2021/10/09 07:54:49;;;;;;;37.35;17.77;;;;;;;16.11;65.53;99560.59;5083341;28;20016;-91
2021/10/09 07:57:15;;;;;;;34.97;17.58;;;;;;;16.08;66.46;99560.69;5083218;28;20039;-91
2021/10/09 07:59:40;;;;;;;38.20;17.77;;;;;;;16.60;66.47;99555.69;5083259;28;20053;-91
2021/10/09 08:02:05;;;;;;;35.53;17.52;;;;;;;17.31;63.61;99555.31;5083192;28;20066;-91
2021/10/09 08:04:31;;;;;;;32.70;18.65;;;;;;;17.16;63.87;99557.53;5082916;28;20111;-90
2021/10/09 08:06:57;;;;;;;41.08;19.00;;;;;;;16.66;65.03;99555.53;5084283;28;20311;-91
2021/10/09 08:09:25;;;;;;;35.42;18.80;;;;;;;17.02;63.75;99553.53;5083109;28;20016;-91
2021/10/09 08:11:51;;;;;;;34.00;18.35;;;;;;;17.71;63.44;99558.44;5082687;28;20062;-91
2021/10/09 08:14:16;;;;;;;40.20;18.08;;;;;;;18.36;62.17;99554.38;5083059;28;20319;-91
2021/10/09 08:16:42;;;;;;;44.35;17.75;;;;;;;18.43;61.01;99559.47;5082981;28;20048;-91
2021/10/09 08:19:07;;;;;;;38.50;18.05;;;;;;;18.71;59.66;99553.97;5083033;28;20066;-91
2021/10/09 08:21:39;;;;;;;37.72;18.65;;;;;;;18.31;59.19;99548.31;5082985;28;20057;-91
2021/10/09 08:38:47;;;;;;;33.13;17.65;;;;;;;19.34;56.61;99577.34;5083941;28;20031;-91
2021/10/09 08:40:17;;;;;;;31.33;15.77;;;;;;;19.11;59.82;99581.75;5083608;28;20020;-91
2021/10/09 08:42:44;;;;;;;35.95;17.30;;;;;;;18.98;58.78;99612.50;5082798;28;20059;-91
2021/10/09 08:45:10;;;;;;;35.80;17.05;;;;;;;18.99;57.39;99597.38;5083974;28;20091;-91
2021/10/09 08:47:38;;;;;;;30.50;16.15;;;;;;;18.41;59.54;99587.97;5082441;28;20027;-91
2021/10/09 08:50:07;;;;;;;38.42;15.98;;;;;;;18.76;58.20;99573.34;5082482;28;20020;-91
2021/10/09 08:52:34;;;;;;;31.48;16.02;;;;;;;18.71;58.97;99588.66;5082506;28;20020;-91
2021/10/09 08:55:20;;;;;;;32.20;15.38;;;;;;;19.09;57.35;99678.81;5082705;28;20077;-91
2021/10/09 08:57:47;;;;;;;33.40;14.85;;;;;;;17.85;60.03;99649.41;5083729;28;20028;-90
2021/10/09 09:00:13;;;;;;;36.22;15.40;;;;;;;18.08;59.27;99636.19;5082596;28;20027;-91
2021/10/09 09:02:50;;;;;;;43.60;15.40;;;;;;;18.85;57.37;99637.03;5082877;28;20268;-91
2021/10/09 09:05:36;;;;;;;32.72;14.65;;;;;;;19.23;56.42;99623.09;5082380;28;20097;-91
2021/10/09 09:27:50;;;;;;;33.78;13.82;;;;;;;19.02;56.66;99566.09;5087321;28;20019;-91
2021/10/09 09:36:07;;;;;;;35.17;12.68;;;;;;;18.84;56.21;99627.28;5087187;28;20012;-91
2021/10/09 09:39:04;;;;;;;39.22;13.05;;;;;;;18.01;57.20;99608.03;5085976;28;20020;-90
2021/10/09 09:41:41;;;;;;;25.73;13.07;;;;;;;18.76;56.37;99602.66;5085883;28;20024;-91
2021/10/09 09:44:13;;;;;;;31.23;13.57;;;;;;;18.64;55.41;99589.81;5085853;28;20021;-91
2021/10/09 09:46:40;;;;;;;32.28;13.32;;;;;;;18.08;56.75;99588.25;5086753;28;20043;-91
2021/10/09 09:49:06;;;;;;;30.48;13.45;;;;;;;18.28;56.57;99580.41;5086568;28;20032;-91
2021/10/09 09:51:36;;;;;;;33.67;12.38;;;;;;;18.46;56.04;99574.47;5086790;28;20084;-91
2021/10/09 09:54:02;;;;;;;32.22;13.75;;;;;;;18.66;55.40;99571.94;5085612;28;20062;-91
2021/10/09 09:56:29;;;;;;;34.10;12.30;;;;;;;19.08;55.86;99578.34;5085775;28;20029;-91
2021/10/09 09:59:00;;;;;;;37.90;13.55;;;;;;;18.72;56.49;99561.03;5085522;28;20032;-91
2021/10/09 10:01:30;;;;;;;26.52;12.25;;;;;;;19.01;55.63;99576.81;5085545;28;20047;-91
2021/10/09 10:03:58;;;;;;;27.63;13.20;;;;;;;19.26;54.84;99564.28;5085310;28;20390;-91
2021/10/09 10:06:27;;;;;;;34.45;12.55;;;;;;;19.08;54.81;99543.66;5085417;28;20052;-91
2021/10/09 10:08:55;;;;;;;30.00;12.63;;;;;;;19.28;54.31;99546.44;5086509;28;20031;-91
2021/10/09 10:11:20;;;;;;;26.63;11.60;;;;;;;19.28;55.37;99546.44;5085334;28;20028;-91
2021/10/09 10:13:47;;;;;;;23.73;11.73;;;;;;;18.76;55.90;99538.66;5085305;28;20031;-91
2021/10/09 10:16:13;;;;;;;21.95;11.98;;;;;;;18.99;56.09;99534.19;5085520;28;20338;-91
2021/10/09 10:18:51;;;;;;;23.15;12.32;;;;;;;19.22;54.20;99541.31;5085222;28;20048;-91
2021/10/09 10:21:46;;;;;;;30.92;12.02;;;;;;;18.83;55.30;99553.53;5084824;28;20316;-91
2021/10/09 10:24:12;;;;;;;20.00;11.00;;;;;;;18.94;53.74;99545.97;5085247;28;20020;-91
2021/10/09 10:26:38;;;;;;;20.38;10.50;;;;;;;18.46;54.36;99550.47;5085040;28;20078;-91
2021/10/09 10:29:03;;;;;;;20.25;10.32;;;;;;;18.90;52.62;99550.56;5085391;28;20025;-91
2021/10/09 10:31:30;;;;;;;26.73;10.57;;;;;;;18.74;53.55;99543.19;5083921;28;20024;-91
2021/10/09 10:34:21;;;;;;;25.55;9.98;;;;;;;18.71;54.06;99540.66;5085035;28;20087;-91
2021/10/09 10:36:47;;;;;;;24.50;11.48;;;;;;;18.89;53.96;99547.97;5064976;28;20037;-91
2021/10/09 10:39:18;;;;;;;22.90;10.63;;;;;;;18.64;53.34;99547.16;5074536;28;20018;-91
2021/10/09 10:42:11;;;;;;;22.15;10.48;;;;;;;18.15;53.21;99539.13;5083167;28;20042;-91
2021/10/09 10:48:01;;;;;;;33.60;11.00;;;;;;;18.23;54.44;99540.59;5085344;28;20021;-92
2021/10/09 10:53:23;;;;;;;25.05;10.90;;;;;;;17.88;54.02;99532.13;5065286;28;20029;-92
2021/10/09 10:56:09;;;;;;;19.13;9.07;;;;;;;17.95;52.33;99544.28;5063931;28;20025;-92
2021/10/09 10:58:36;;;;;;;22.27;10.27;;;;;;;18.06;52.34;99550.09;5069878;28;20055;-91
2021/10/09 11:01:18;;;;;;;24.65;11.35;;;;;;;17.75;54.17;99542.31;5083655;28;20066;-92
2021/10/09 11:03:48;;;;;;;21.33;9.98;;;;;;;17.77;53.18;99544.91;5083609;28;20049;-92
2021/10/09 11:06:20;;;;;;;23.58;10.23;;;;;;;17.72;52.13;99542.41;5083371;28;20039;-92
2021/10/09 11:08:46;;;;;;;25.17;10.05;;;;;;;17.58;53.76;99543.78;5067014;28;20028;-92
2021/10/09 11:11:13;;;;;;;27.40;9.23;;;;;;;17.76;52.76;99540.53;5082992;28;20074;-92
2021/10/09 11:13:40;;;;;;;23.63;10.70;;;;;;;17.85;53.03;99534.88;5083557;28;20078;-92
2021/10/09 11:16:06;;;;;;;23.27;9.52;;;;;;;17.57;52.71;99537.63;5084524;28;20093;-92
2021/10/09 11:18:50;;;;;;;22.00;9.52;;;;;;;17.82;52.71;99545.66;5083144;28;20028;-92
2021/10/09 11:21:17;;;;;;;26.67;10.18;;;;;;;17.81;53.43;99531.44;5083308;28;20039;-92
2021/10/09 11:23:50;;;;;;;26.67;9.85;;;;;;;18.10;51.56;99525.97;5083105;28;20215;-92
2021/10/09 11:26:16;;;;;;;22.67;8.82;;;;;;;17.93;48.96;99552.34;5083050;28;20031;-92
2021/10/09 11:28:43;;;;;;;17.10;7.53;;;;;;;18.07;48.96;99757.03;5083368;28;20029;-92
2021/10/09 11:31:08;;;;;;;20.30;9.10;;;;;;;17.95;49.95;99634.88;5083185;28;20073;-92
2021/10/09 11:33:36;;;;;;;25.63;9.45;;;;;;;17.70;49.09;99586.88;5083230;28;20328;-92
2021/10/09 11:36:03;;;;;;;22.95;9.18;;;;;;;18.10;48.70;99578.41;5083050;28;20031;-92
2021/10/09 11:38:32;;;;;;;18.80;8.20;;;;;;;17.92;48.90;99576.38;5082394;28;20021;-90
2021/10/09 11:41:02;;;;;;;25.33;8.77;;;;;;;17.73;49.73;99568.13;5082762;28;20095;-92
2021/10/09 11:56:46;;;;;;;19.60;8.48;;;;;;;17.51;49.51;99537.81;5084271;28;20024;-92
2021/10/09 11:59:13;;;;;;;41.00;11.00;;;;;;;17.25;50.36;99540.41;5082855;28;20305;-92
2021/10/09 12:01:43;;;;;;;20.33;9.20;;;;;;;17.16;50.72;99535.38;5082872;28;20130;-91
2021/10/09 12:04:23;;;;;;;24.98;9.68;;;;;;;17.34;51.38;99539.25;5082401;28;20044;-92
2021/10/09 12:06:55;;;;;;;19.35;9.38;;;;;;;17.15;51.10;99534.50;5083929;28;20091;-92
2021/10/09 12:09:57;;;;;;;30.42;10.65;;;;;;;17.11;51.41;99543.50;5083073;28;20126;-91
2021/10/09 12:12:33;;;;;;;19.10;10.18;;;;;;;17.08;50.58;99526.75;5062459;28;20025;-92
2021/10/09 12:14:59;;;;;;;25.00;8.85;;;;;;;17.11;52.02;99522.22;5076611;28;20028;-91
2021/10/09 12:17:37;;;;;;;26.63;8.52;;;;;;;17.12;50.30;99515.97;5082436;28;20025;-91
2021/10/09 12:20:06;;;;;;;16.55;8.40;;;;;;;17.03;49.69;99513.59;5082635;28;20036;-92
2021/10/09 12:22:47;;;;;;;21.35;9.20;;;;;;;16.92;50.12;99510.41;5082686;28;20020;-91
2021/10/09 12:25:19;;;;;;;18.07;7.87;;;;;;;17.05;50.36;99510.88;5082429;28;20073;-91
2021/10/09 12:27:54;;;;;;;22.17;9.27;;;;;;;16.94;51.35;99519.22;5082696;28;20066;-92
2021/10/09 12:30:19;;;;;;;17.73;8.18;;;;;;;16.75;50.79;99539.31;5082556;28;20260;-91
2021/10/09 12:32:48;;;;;;;23.52;8.80;;;;;;;16.81;50.65;99546.22;5083741;28;20043;-91
2021/10/09 12:35:29;;;;;;;14.77;8.27;;;;;;;16.78;49.95;99527.69;5082364;28;20016;-91
2021/10/09 12:37:58;;;;;;;23.70;9.45;;;;;;;16.60;50.72;99523.81;5081992;28;20016;-91
2021/10/09 12:40:28;;;;;;;22.65;8.73;;;;;;;16.61;50.76;99516.72;5082516;28;20024;-91
2021/10/09 12:43:00;;;;;;;27.02;9.35;;;;;;;16.66;51.70;99518.31;5082934;28;20020;-92
2021/10/09 12:45:26;;;;;;;;;;;;;;;16.69;52.42;99510.25;5082570;28;20038;-91
2021/10/09 12:47:58;;;;;;;22.55;8.93;;;;;;;16.53;53.15;99500.09;5082216;28;20032;-92
2021/10/09 12:50:38;;;;;;;18.17;8.63;;;;;;;16.72;52.04;99512.81;5083234;28;20025;-91
2021/10/09 12:53:06;;;;;;;24.73;9.32;;;;;;;16.79;51.91;99508.16;5083104;28;20266;-93
2021/10/09 12:55:33;;;;;;;23.15;9.13;;;;;;;16.57;51.60;99507.94;5082510;28;20048;-91
2021/10/09 12:58:09;;;;;;;20.23;8.70;;;;;;;16.54;51.64;99489.44;5083991;28;20016;-91
2021/10/09 13:00:36;;;;;;;19.35;9.07;;;;;;;16.67;51.44;99496.13;5087112;28;20024;-91
2021/10/09 13:03:02;;;;;;;14.32;7.28;;;;;;;16.69;49.00;99491.63;5082762;28;20024;-92
2021/10/09 13:05:29;;;;;;;16.65;7.85;;;;;;;16.70;50.72;99504.00;5069978;28;20063;-92
2021/10/09 13:08:00;;;;;;;20.20;8.38;;;;;;;16.72;51.05;99491.53;5087999;28;20017;-89
2021/10/09 13:10:28;;;;;;;22.52;9.27;;;;;;;16.69;51.86;99496.94;5086538;28;20020;-90
2021/10/09 13:12:53;;;;;;;20.50;9.15;;;;;;;16.58;52.79;99493.72;5086237;28;20203;-89
2021/10/09 13:15:19;;;;;;;20.33;8.80;;;;;;;16.43;52.42;99493.31;5086391;28;20020;-90
2021/10/09 13:17:49;;;;;;;17.58;9.07;;;;;;;16.48;51.90;99486.94;5086229;28;20020;-90
2021/10/09 13:20:16;;;;;;;20.45;10.25;;;;;;;16.57;52.93;99486.69;5087454;28;20020;-89
2021/10/09 13:22:42;;;;;;;30.55;10.38;;;;;;;16.57;53.00;99566.41;5086262;28;20020;-90
2021/10/09 13:25:08;;;;;;;25.10;9.93;;;;;;;16.60;52.27;99550.38;5085966;28;20066;-90
2021/10/09 13:27:34;;;;;;;25.35;9.10;;;;;;;16.66;53.37;99539.56;5087281;28;20012;-89
2021/10/09 13:30:00;;;;;;;23.17;8.30;;;;;;;16.63;53.48;99590.16;5087283;28;20039;-89
2021/10/09 13:32:25;;;;;;;24.52;9.05;;;;;;;16.73;52.86;99562.41;5086047;28;20024;-89
2021/10/09 13:34:51;;;;;;;17.88;8.52;;;;;;;16.58;52.99;99544.22;5085824;28;20022;-90
2021/10/09 13:37:20;;;;;;;22.17;10.23;;;;;;;16.69;52.90;99536.81;5085911;28;20096;-89
2021/10/09 13:39:52;;;;;;;21.77;8.05;;;;;;;16.67;52.27;99538.66;5085731;28;20052;-89
2021/10/09 13:42:18;;;;;;;24.05;8.95;;;;;;;16.70;53.26;99530.59;5085752;28;20220;-90
2021/10/09 13:44:43;;;;;;;15.23;7.65;;;;;;;16.79;52.01;99513.47;5085675;28;20020;-89